createdAt,value
2023-02-01T00:01:30.272Z,100281.80
2023-02-01T00:03:58.526Z,100280.72
2023-02-01T00:06:26.790Z,100273.21
2023-02-01T00:08:55.518Z,100273.19
2023-02-01T00:11:23.890Z,100267.55
2023-02-01T00:13:52.581Z,100261.81
2023-02-01T00:16:26.108Z,100260.86
2023-02-01T00:19:02.527Z,100255.17
2023-02-01T00:21:31.243Z,100258.77
2023-02-01T00:24:00.552Z,100257.38
2023-02-01T00:26:34.309Z,100256.70
2023-02-01T00:29:03.742Z,100256.44
2023-02-01T00:31:31.965Z,100255.84
2023-02-01T00:34:00.259Z,100254.27
2023-02-01T00:36:29.648Z,100257.70
2023-02-01T00:38:58.590Z,100254.00
2023-02-01T00:41:28.086Z,100255.73
2023-02-01T00:43:56.740Z,100255.42
2023-02-01T00:46:25.290Z,100256.08
2023-02-01T00:48:53.562Z,100250.71
2023-02-01T00:51:25.070Z,100253.85
2023-02-01T00:53:53.392Z,100252.20
2023-02-01T00:56:22.867Z,100249.95
2023-02-01T00:58:51.851Z,100247.30
2023-02-01T01:01:22.679Z,100245.06
2023-02-01T01:03:53.018Z,100237.89
2023-02-01T01:06:27.197Z,100235.35
2023-02-01T01:08:56.197Z,100234.09
2023-02-01T01:11:30.216Z,100229.02
2023-02-01T01:13:59.358Z,100227.23
2023-02-01T01:16:29.152Z,100224.46
2023-02-01T01:18:57.781Z,100221.23
2023-02-01T01:21:26.407Z,100221.68
2023-02-01T01:23:55.624Z,100222.23
2023-02-01T01:26:25.739Z,100224.10
2023-02-01T01:28:56.060Z,100222.33
2023-02-01T01:31:24.880Z,100221.17
2023-02-01T01:33:56.696Z,100223.20
2023-02-01T01:36:27.202Z,100224.16
2023-02-01T01:38:55.919Z,100221.09
2023-02-01T01:41:31.960Z,100222.55
2023-02-01T01:44:07.184Z,100220.52
2023-02-01T01:46:37.262Z,100220.31
2023-02-01T01:49:14.098Z,100220.52
2023-02-01T01:51:53.341Z,100218.41
2023-02-01T01:54:50.249Z,100223.14
2023-02-01T01:57:22.121Z,100217.83
2023-02-01T01:59:56.304Z,100217.15
2023-02-01T02:02:26.160Z,100224.04
2023-02-01T02:04:55.528Z,100227.64
2023-02-01T02:07:26.482Z,100230.30
2023-02-01T02:10:00.921Z,100231.17
2023-02-01T02:12:30.694Z,100227.08
2023-02-01T02:14:58.985Z,100224.16
2023-02-01T02:17:46.205Z,100223.32
2023-02-01T02:20:48.948Z,100220.83
2023-02-01T02:23:59.349Z,100220.92
2023-02-01T02:26:30.553Z,100225.06
2023-02-01T02:29:34.212Z,100220.75
2023-02-01T02:32:18.538Z,100219.00
2023-02-01T02:35:18.278Z,100219.33
2023-02-01T02:37:53.014Z,100216.23
2023-02-01T02:40:32.704Z,100210.84
2023-02-01T02:43:46.501Z,100210.90
2023-02-01T02:46:42.241Z,100206.01
2023-02-01T02:49:24.189Z,100204.48
2023-02-01T02:52:35.646Z,100207.61
2023-02-01T02:55:05.455Z,100203.63
2023-02-01T02:57:57.667Z,100207.54
2023-02-01T03:00:48.191Z,100208.66
2023-02-01T03:03:35.663Z,100211.41
2023-02-01T03:06:05.259Z,100215.64
2023-02-01T03:08:33.657Z,100215.06
2023-02-01T03:11:11.817Z,100217.45
2023-02-01T03:13:51.590Z,100215.60
2023-02-01T03:16:34.811Z,100215.21
2023-02-01T03:19:15.854Z,100212.73
2023-02-01T03:22:18.503Z,100211.49
2023-02-01T03:24:58.981Z,100208.05
2023-02-01T03:27:33.907Z,100205.50
2023-02-01T03:30:23.397Z,100203.17
2023-02-01T03:33:03.329Z,100201.89
2023-02-01T03:35:48.583Z,100205.29
2023-02-01T03:38:26.466Z,100204.13
2023-02-01T03:41:16.762Z,100205.28
2023-02-01T03:43:55.804Z,100205.77
2023-02-01T03:46:35.433Z,100202.51
2023-02-01T03:49:12.268Z,100207.59
2023-02-01T03:51:50.109Z,100208.87
2023-02-01T03:54:33.149Z,100206.98
2023-02-01T03:59:51.994Z,100209.13
2023-02-01T04:02:23.256Z,100207.89
2023-02-01T04:04:52.025Z,100210.42
2023-02-01T04:07:21.543Z,100206.77
2023-02-01T04:09:59.631Z,100207.57
2023-02-01T04:12:35.459Z,100210.04
2023-02-01T04:15:04.837Z,100210.09
2023-02-01T04:20:06.464Z,100208.51
2023-02-01T04:22:44.138Z,100206.14
2023-02-01T04:28:10.675Z,100208.89
2023-02-01T04:30:46.206Z,100214.02
2023-02-01T04:33:19.556Z,100221.80
2023-02-01T04:35:50.324Z,100225.85
2023-02-01T04:38:18.607Z,100228.85
2023-02-01T04:40:48.685Z,100227.78
2023-02-01T04:43:17.971Z,100228.69
2023-02-01T04:45:50.652Z,100234.49
2023-02-01T04:48:19.893Z,100231.28
2023-02-01T04:50:49.545Z,100231.95
2023-02-01T04:53:18.244Z,100231.34
2023-02-01T04:55:49.385Z,100238.41
2023-02-01T04:58:18.363Z,100236.79
2023-02-01T05:00:46.514Z,100235.16
2023-02-01T05:03:17.461Z,100238.89
2023-02-01T05:05:49.409Z,100244.08
2023-02-01T05:08:17.629Z,100252.13
2023-02-01T05:10:46.205Z,100251.52
2023-02-01T05:13:32.787Z,100255.96
2023-02-01T05:16:01.231Z,100258.77
2023-02-01T05:18:30.065Z,100260.67
2023-02-01T05:20:58.130Z,100259.61
2023-02-01T05:23:26.215Z,100259.88
2023-02-01T05:25:59.721Z,100256.79
2023-02-01T05:28:28.805Z,100261.14
2023-02-01T05:30:57.224Z,100261.46
2023-02-01T05:33:25.512Z,100262.17
2023-02-01T05:35:53.631Z,100264.48
2023-02-01T05:38:22.711Z,100268.88
2023-02-01T05:40:50.816Z,100275.11
2023-02-01T05:43:18.938Z,100281.06
2023-02-01T05:45:47.004Z,100285.25
2023-02-01T05:48:15.110Z,100291.34
2023-02-01T05:50:45.193Z,100290.54
2023-02-01T05:53:13.625Z,100287.89
2023-02-01T05:55:42.931Z,100288.56
2023-02-01T05:58:11.442Z,100291.81
2023-02-01T06:00:40.224Z,100288.07
2023-02-01T06:03:08.428Z,100286.83
2023-02-01T06:05:38.196Z,100284.60
2023-02-01T06:08:08.898Z,100283.21
2023-02-01T06:10:37.120Z,100284.49
2023-02-01T06:13:06.587Z,100283.55
2023-02-01T06:15:35.148Z,100284.99
2023-02-01T06:18:03.713Z,100287.47
2023-02-01T06:20:33.397Z,100290.33
2023-02-01T06:23:01.972Z,100293.41
2023-02-01T06:25:30.857Z,100290.04
2023-02-01T06:28:01.939Z,100291.48
2023-02-01T06:30:31.687Z,100292.06
2023-02-01T06:33:00.262Z,100294.65
2023-02-01T06:35:31.836Z,100296.59
2023-02-01T06:38:00.865Z,100296.73
2023-02-01T06:40:29.575Z,100295.45
2023-02-01T06:42:59.612Z,100294.18
2023-02-01T06:45:27.978Z,100293.39
2023-02-01T06:48:07.670Z,100294.34
2023-02-01T06:50:48.848Z,100298.59
2023-02-01T06:53:19.844Z,100299.38
2023-02-01T06:56:00.327Z,100302.08
2023-02-01T06:58:32.592Z,100300.98
2023-02-01T07:01:07.255Z,100303.44
2023-02-01T07:03:39.741Z,100300.09
2023-02-01T07:06:08.821Z,100298.78
2023-02-01T07:08:39.168Z,100299.19
2023-02-01T07:11:12.607Z,100299.95
2023-02-01T07:13:41.265Z,100297.35
2023-02-01T07:16:17.485Z,100295.96
2023-02-01T07:18:47.075Z,100296.39
2023-02-01T07:21:20.875Z,100302.00
2023-02-01T07:23:53.597Z,100302.24
2023-02-01T07:26:29.964Z,100301.53
2023-02-01T07:28:58.993Z,100300.10
2023-02-01T07:31:30.091Z,100297.23
2023-02-01T07:34:00.796Z,100298.60
2023-02-01T07:36:49.627Z,100298.60
2023-02-01T07:39:17.948Z,100299.59
2023-02-01T07:41:47.764Z,100295.95
2023-02-01T07:44:19.168Z,100298.50
2023-02-01T07:46:58.975Z,100302.52
2023-02-01T07:49:27.552Z,100301.42
2023-02-01T07:51:57.424Z,100303.15
2023-02-01T07:54:25.810Z,100298.14
2023-02-01T07:56:58.118Z,100303.67
2023-02-01T07:59:29.074Z,100302.15
2023-02-01T08:01:58.447Z,100295.29
2023-02-01T08:04:27.722Z,100292.63
2023-02-01T08:07:00.162Z,100298.25
2023-02-01T08:09:42.051Z,100304.42
2023-02-01T08:12:10.906Z,100298.63
2023-02-01T08:14:43.410Z,100300.38
2023-02-01T08:17:20.229Z,100296.05
2023-02-01T08:20:10.138Z,100295.81
2023-02-01T08:22:54.300Z,100295.79
2023-02-01T08:25:33.287Z,100292.25
2023-02-01T08:28:05.971Z,100288.59
2023-02-01T08:33:38.535Z,100282.55
2023-02-01T08:36:09.645Z,100279.84
2023-02-01T08:38:40.731Z,100278.38
2023-02-01T08:41:15.500Z,100276.54
2023-02-01T08:43:46.304Z,100274.94
2023-02-01T08:52:32.999Z,100261.39
2023-02-01T08:55:09.239Z,100258.29
2023-02-01T08:57:41.600Z,100260.77
2023-02-01T09:00:25.047Z,100261.02
2023-02-01T09:03:15.665Z,100256.21
2023-02-01T09:06:28.105Z,100253.45
2023-02-01T09:12:18.530Z,100240.82
2023-02-01T09:14:48.247Z,100240.25
2023-02-01T09:17:19.565Z,100242.06
2023-02-01T09:19:48.189Z,100241.82
2023-02-01T09:22:23.220Z,100249.03
2023-02-01T09:24:56.251Z,100250.30
2023-02-01T09:27:26.172Z,100246.54
2023-02-01T09:29:57.648Z,100245.08
2023-02-01T09:32:28.182Z,100241.45
2023-02-01T09:35:01.906Z,100242.40
2023-02-01T09:37:32.487Z,100236.17
2023-02-01T09:40:01.727Z,100234.61
2023-02-01T09:42:49.915Z,100233.38
2023-02-01T09:45:46.981Z,100228.74
2023-02-01T09:48:21.370Z,100225.30
2023-02-01T09:50:59.055Z,100225.23
2023-02-01T09:53:35.713Z,100221.30
2023-02-01T09:56:28.968Z,100221.75
2023-02-01T09:59:18.779Z,100217.88
2023-02-01T10:01:47.100Z,100216.23
2023-02-01T10:04:17.434Z,100211.27
2023-02-01T10:07:16.747Z,100212.86
2023-02-01T10:10:06.186Z,100212.17
2023-02-01T10:12:38.141Z,100208.31
2023-02-01T10:15:11.673Z,100205.17
2023-02-01T10:18:19.884Z,100211.44
2023-02-01T10:20:54.192Z,100209.73
2023-02-01T10:23:33.877Z,100207.49
2023-02-01T10:26:10.638Z,100206.20
2023-02-01T10:28:39.232Z,100210.20
2023-02-01T10:31:07.775Z,100211.89
2023-02-01T10:33:41.018Z,100208.21
2023-02-01T10:36:09.427Z,100210.20
2023-02-01T10:38:37.874Z,100205.11
2023-02-01T10:41:21.175Z,100206.59
2023-02-01T10:43:56.712Z,100214.08
2023-02-01T10:46:25.444Z,100211.60
2023-02-01T14:38:34.812Z,100272.33
2023-02-01T14:41:30.117Z,100274.28
2023-02-01T14:44:04.609Z,100281.17
2023-02-01T14:47:10.774Z,100283.98
2023-02-01T14:49:58.203Z,100291.33
2023-02-01T14:52:39.500Z,100296.02
2023-02-01T14:55:10.439Z,100298.78
2023-02-01T14:57:39.153Z,100302.20
2023-02-01T15:00:24.779Z,100304.18
2023-02-01T15:02:53.868Z,100305.55
2023-02-01T15:05:42.292Z,100303.91
2023-02-01T15:08:26.027Z,100307.96
2023-02-01T15:10:54.387Z,100310.16
2023-02-01T15:13:24.403Z,100309.33
2023-02-01T15:16:12.406Z,100307.17
2023-02-01T15:18:41.136Z,100313.02
2023-02-01T15:21:27.209Z,100307.90
2023-02-01T15:24:26.590Z,100310.56
2023-02-01T15:26:55.479Z,100311.70
2023-02-01T15:29:28.753Z,100314.70
2023-02-01T15:31:58.570Z,100316.75
2023-02-01T15:34:45.900Z,100316.27
2023-02-01T15:37:16.438Z,100319.15
2023-02-01T15:40:19.771Z,100322.02
2023-02-01T15:42:56.239Z,100321.77
2023-02-01T15:45:29.033Z,100318.71
2023-02-01T15:47:58.696Z,100319.79
2023-02-01T15:50:27.952Z,100318.88
2023-02-01T15:52:58.755Z,100318.65
2023-02-01T15:55:38.404Z,100318.20
2023-02-01T15:58:14.363Z,100316.02
2023-02-01T16:00:57.134Z,100319.85
2023-02-01T16:03:40.599Z,100324.29
2023-02-01T16:06:29.012Z,100324.31
2023-02-01T16:09:00.250Z,100317.90
2023-02-01T16:11:34.037Z,100317.23
2023-02-01T16:14:03.991Z,100315.19
2023-02-01T16:16:33.092Z,100316.38
2023-02-01T16:19:01.709Z,100319.83
2023-02-01T16:21:30.015Z,100318.83
2023-02-01T16:24:00.575Z,100317.98
2023-02-01T16:26:29.257Z,100316.98
2023-02-01T16:28:57.411Z,100319.30
2023-02-01T16:31:30.394Z,100321.05
2023-02-01T16:33:58.817Z,100320.43
2023-02-01T16:36:28.224Z,100317.61
2023-02-01T16:38:56.644Z,100320.20
2023-02-01T16:41:25.319Z,100319.36
2023-02-01T16:43:55.009Z,100318.42
2023-02-01T16:46:26.631Z,100319.39
2023-02-01T16:48:57.128Z,100320.64
2023-02-01T16:51:27.028Z,100321.22
2023-02-01T16:53:55.308Z,100317.53
2023-02-01T16:56:29.428Z,100309.56
2023-02-01T16:58:57.674Z,100307.59
2023-02-01T17:01:26.271Z,100307.38
2023-02-01T17:03:54.489Z,100303.79
2023-02-01T17:06:24.695Z,100310.21
2023-02-01T17:08:59.075Z,100308.51
2023-02-01T17:11:28.256Z,100311.56
2023-02-01T17:13:58.256Z,100308.20
2023-02-01T17:16:29.935Z,100305.30
2023-02-01T17:19:00.794Z,100308.03
2023-02-01T17:21:30.614Z,100305.86
2023-02-01T17:24:00.224Z,100306.13
2023-02-01T17:26:28.729Z,100307.79
2023-02-01T17:28:59.510Z,100310.02
2023-02-01T17:31:28.191Z,100310.95
2023-02-01T17:33:58.207Z,100310.62
2023-02-01T17:36:27.215Z,100314.02
2023-02-01T17:39:05.334Z,100313.96
2023-02-01T17:41:34.551Z,100323.02
2023-02-01T17:44:03.270Z,100327.58
2023-02-01T17:46:32.054Z,100316.60
2023-02-01T17:49:01.440Z,100310.73
2023-02-01T17:51:29.693Z,100311.64
2023-02-01T17:53:58.007Z,100312.81
2023-02-01T17:56:26.137Z,100312.56
2023-02-01T17:58:55.978Z,100316.05
2023-02-01T18:01:28.302Z,100318.84
2023-02-01T18:03:56.483Z,100322.12
2023-02-01T18:06:26.940Z,100321.83
2023-02-01T18:08:55.892Z,100324.39
2023-02-01T18:11:24.832Z,100324.41
2023-02-01T18:13:53.718Z,100330.45
2023-02-01T18:16:24.735Z,100324.64
2023-02-01T18:18:53.019Z,100323.90
2023-02-01T18:21:22.425Z,100323.66
2023-02-01T18:23:50.676Z,100321.80
2023-02-01T18:26:27.842Z,100319.90
2023-02-01T18:28:59.169Z,100323.35
2023-02-01T18:31:30.181Z,100329.08
2023-02-01T18:34:06.820Z,100328.66
2023-02-01T18:36:36.671Z,100332.28
2023-02-01T18:39:11.908Z,100331.70
2023-02-01T18:41:41.400Z,100332.48
2023-02-01T18:44:15.889Z,100330.21
2023-02-01T18:46:44.245Z,100331.92
2023-02-01T18:49:14.100Z,100334.74
2023-02-01T18:51:43.710Z,100334.59
2023-02-01T18:54:12.344Z,100332.77
2023-02-01T18:56:43.000Z,100326.27
2023-02-01T18:59:14.160Z,100325.84
2023-02-01T19:01:44.740Z,100322.63
2023-02-01T19:04:16.871Z,100329.31
2023-02-01T19:06:48.520Z,100332.84
2023-02-01T19:09:16.969Z,100324.38
2023-02-01T19:11:45.343Z,100320.27
2023-02-01T19:14:13.614Z,100320.64
2023-02-01T19:16:44.877Z,100319.70
2023-02-01T19:19:16.680Z,100320.31
2023-02-01T19:21:44.879Z,100327.93
2023-02-01T19:24:13.103Z,100324.50
2023-02-01T19:26:41.934Z,100326.23
2023-02-01T19:29:14.054Z,100321.95
2023-02-01T19:31:44.281Z,100327.32
2023-02-01T19:34:12.846Z,100326.13
2023-02-01T19:36:42.777Z,100328.73
2023-02-01T19:39:11.153Z,100327.40
2023-02-01T19:41:39.555Z,100328.80
2023-02-01T19:44:07.822Z,100330.10
2023-02-01T19:46:38.629Z,100328.53
2023-02-01T19:49:12.114Z,100333.44
2023-02-01T19:51:41.888Z,100328.30
2023-02-01T19:54:10.807Z,100329.58
2023-02-01T19:56:38.953Z,100336.11
2023-02-01T19:59:07.610Z,100330.88
2023-02-01T20:01:37.479Z,100324.73
2023-02-01T20:04:07.441Z,100320.80
2023-02-01T20:06:38.272Z,100321.48
2023-02-01T20:09:08.840Z,100322.62
2023-02-01T20:11:37.823Z,100332.11
2023-02-01T20:14:07.620Z,100338.30
2023-02-01T20:16:36.356Z,100337.86
2023-02-01T20:19:05.310Z,100337.95
2023-02-01T20:21:33.420Z,100330.13
2023-02-01T20:24:01.787Z,100327.09
2023-02-01T20:26:31.066Z,100320.63
2023-02-01T20:29:00.108Z,100318.61
2023-02-01T20:31:31.435Z,100323.52
2023-02-01T20:34:00.523Z,100333.81
2023-02-01T20:36:29.411Z,100335.08
2023-02-01T20:38:57.855Z,100338.58
2023-02-01T20:41:26.393Z,100338.91
2023-02-01T20:43:54.567Z,100339.55
2023-02-01T20:46:22.998Z,100336.00
2023-02-01T20:48:51.358Z,100332.21
2023-02-01T20:51:20.676Z,100333.44
2023-02-01T20:53:54.179Z,100330.54
2023-02-01T20:56:23.458Z,100332.50
2023-02-01T20:58:53.071Z,100328.33
2023-02-01T21:01:21.305Z,100328.17
2023-02-01T21:03:49.337Z,100325.66
2023-02-01T21:06:17.533Z,100324.75
2023-02-01T21:08:45.785Z,100327.41
2023-02-01T21:11:14.595Z,100322.86
2023-02-01T21:13:50.650Z,100320.05
2023-02-01T21:16:20.485Z,100322.02
2023-02-01T21:18:52.444Z,100326.86
2023-02-01T21:21:20.651Z,100324.84
2023-02-01T21:23:53.248Z,100323.80
2023-02-01T21:26:22.558Z,100325.09
2023-02-01T21:28:52.081Z,100326.95
2023-02-01T21:31:22.361Z,100327.95
2023-02-01T21:33:51.261Z,100323.73
2023-02-01T21:36:19.611Z,100321.66
2023-02-01T21:38:50.994Z,100320.36
2023-02-01T21:41:39.325Z,100316.48
2023-02-01T21:44:07.868Z,100318.36
2023-02-01T21:46:36.467Z,100314.65
2023-02-01T21:49:07.054Z,100311.09
2023-02-01T21:51:38.388Z,100310.64
2023-02-01T21:54:10.377Z,100313.92
2023-02-01T21:56:40.314Z,100309.73
2023-02-01T21:59:10.466Z,100315.92
2023-02-01T22:01:40.888Z,100310.38
2023-02-01T22:04:10.380Z,100312.54
2023-02-01T22:06:46.709Z,100311.31
2023-02-01T22:09:20.125Z,100311.10
2023-02-01T22:11:51.749Z,100311.65
2023-02-01T22:14:24.713Z,100312.21
2023-02-01T22:16:53.162Z,100314.49
2023-02-01T22:19:21.427Z,100310.88
2023-02-01T22:21:49.997Z,100315.95
2023-02-01T22:24:21.065Z,100320.18
2023-02-01T22:26:49.835Z,100313.73
2023-02-01T22:29:19.462Z,100307.52
2023-02-01T22:31:48.213Z,100309.94
2023-02-01T22:34:16.608Z,100305.82
2023-02-01T22:36:44.871Z,100303.14
2023-02-01T22:39:13.119Z,100297.39
2023-02-01T22:41:42.314Z,100295.63
2023-02-01T22:44:10.457Z,100296.29
2023-02-01T22:46:38.696Z,100290.56
2023-02-01T22:49:07.035Z,100283.93
2023-02-01T22:51:36.448Z,100283.48
2023-02-01T22:54:05.605Z,100284.06
2023-02-01T22:56:36.629Z,100273.29
2023-02-01T22:59:07.111Z,100274.27
2023-02-01T23:01:35.501Z,100268.70
2023-02-01T23:04:05.959Z,100266.86
2023-02-01T23:06:35.093Z,100265.23
2023-02-01T23:09:13.903Z,100259.48
2023-02-01T23:11:43.506Z,100256.13
2023-02-01T23:14:13.881Z,100251.03
2023-02-01T23:16:44.938Z,100246.67
2023-02-01T23:19:13.333Z,100249.94
2023-02-01T23:21:42.127Z,100246.27
2023-02-01T23:24:11.729Z,100239.98
2023-02-01T23:26:41.232Z,100241.29
2023-02-01T23:29:11.427Z,100250.41
2023-02-01T23:31:39.751Z,100260.48
2023-02-01T23:34:08.069Z,100263.42
2023-02-01T23:36:37.417Z,100264.59
2023-02-01T23:39:07.091Z,100266.77
2023-02-01T23:41:38.049Z,100260.45
2023-02-01T23:44:09.115Z,100257.28
2023-02-01T23:46:39.380Z,100253.70
2023-02-01T23:49:08.653Z,100257.10
2023-02-01T23:51:37.363Z,100256.36
2023-02-01T23:54:06.759Z,100253.29
2023-02-01T23:56:37.520Z,100256.34
2023-02-01T23:59:10.088Z,100248.61
